sensor_id;sensor_type;location;lat;lon;timestamp;P1;durP1;ratioP1;P2;durP2;ratioP2
11228;SDS011;5671;47.936;8.716;2024-02-14T00:02:24;3.23;;;1.93;;
11228;SDS011;5671;47.936;8.716;2024-02-14T00:04:51;3.03;;;2.00;;
11228;SDS011;5671;47.936;8.716;2024-02-14T00:07:19;2.67;;;1.70;;
11228;SDS011;5671;47.936;8.716;2024-02-14T00:09:45;2.03;;;1.83;;
11228;SDS011;5671;47.936;8.716;2024-02-14T00:12:14;5.70;;;2.00;;
11228;SDS011;5671;47.936;8.716;2024-02-14T00:14:41;3.70;;;1.93;;
11228;SDS011;5671;47.936;8.716;2024-02-14T00:17:08;4.13;;;2.20;;
11228;SDS011;5671;47.936;8.716;2024-02-14T00:19:35;2.73;;;1.90;;
11228;SDS011;5671;47.936;8.716;2024-02-14T00:22:02;2.73;;;2.10;;
11228;SDS011;5671;47.936;8.716;2024-02-14T00:24:29;4.23;;;1.80;;
11228;SDS011;5671;47.936;8.716;2024-02-14T00:26:57;1.60;;;1.50;;
11228;SDS011;5671;47.936;8.716;2024-02-14T00:29:26;4.23;;;1.90;;
11228;SDS011;5671;47.936;8.716;2024-02-14T00:31:53;3.43;;;1.80;;
11228;SDS011;5671;47.936;8.716;2024-02-14T00:34:20;4.77;;;1.80;;
11228;SDS011;5671;47.936;8.716;2024-02-14T00:36:47;2.73;;;1.70;;
11228;SDS011;5671;47.936;8.716;2024-02-14T00:39:13;4.37;;;2.00;;
11228;SDS011;5671;47.936;8.716;2024-02-14T00:41:39;2.63;;;1.87;;
11228;SDS011;5671;47.936;8.716;2024-02-14T00:44:06;2.43;;;2.00;;
11228;SDS011;5671;47.936;8.716;2024-02-14T00:46:34;3.67;;;1.97;;
11228;SDS011;5671;47.936;8.716;2024-02-14T00:49:01;4.13;;;2.53;;
11228;SDS011;5671;47.936;8.716;2024-02-14T00:51:28;4.07;;;2.20;;
11228;SDS011;5671;47.936;8.716;2024-02-14T00:53:55;5.10;;;2.10;;
11228;SDS011;5671;47.936;8.716;2024-02-14T00:56:22;2.87;;;2.03;;
11228;SDS011;5671;47.936;8.716;2024-02-14T00:58:49;2.97;;;2.20;;
11228;SDS011;5671;47.936;8.716;2024-02-14T01:01:16;3.77;;;2.40;;
11228;SDS011;5671;47.936;8.716;2024-02-14T01:03:44;4.47;;;2.10;;
11228;SDS011;5671;47.936;8.716;2024-02-14T01:06:11;2.97;;;1.73;;
11228;SDS011;5671;47.936;8.716;2024-02-14T01:08:39;3.70;;;2.10;;
11228;SDS011;5671;47.936;8.716;2024-02-14T01:11:06;3.30;;;2.17;;
11228;SDS011;5671;47.936;8.716;2024-02-14T01:13:33;5.93;;;2.27;;
11228;SDS011;5671;47.936;8.716;2024-02-14T01:16:00;4.37;;;2.97;;
11228;SDS011;5671;47.936;8.716;2024-02-14T01:18:27;6.23;;;3.37;;
11228;SDS011;5671;47.936;8.716;2024-02-14T01:20:55;6.97;;;4.20;;
11228;SDS011;5671;47.936;8.716;2024-02-14T01:23:23;5.83;;;3.53;;
11228;SDS011;5671;47.936;8.716;2024-02-14T01:25:50;6.73;;;3.90;;
11228;SDS011;5671;47.936;8.716;2024-02-14T01:28:19;6.77;;;4.03;;
11228;SDS011;5671;47.936;8.716;2024-02-14T01:30:46;6.23;;;3.67;;
11228;SDS011;5671;47.936;8.716;2024-02-14T01:33:13;5.87;;;3.50;;
11228;SDS011;5671;47.936;8.716;2024-02-14T01:35:41;5.10;;;2.90;;
11228;SDS011;5671;47.936;8.716;2024-02-14T01:38:10;4.73;;;2.73;;
11228;SDS011;5671;47.936;8.716;2024-02-14T01:40:37;6.30;;;3.10;;
11228;SDS011;5671;47.936;8.716;2024-02-14T01:43:04;4.57;;;3.10;;
11228;SDS011;5671;47.936;8.716;2024-02-14T01:45:31;7.80;;;3.87;;
11228;SDS011;5671;47.936;8.716;2024-02-14T01:47:58;5.00;;;3.57;;
11228;SDS011;5671;47.936;8.716;2024-02-14T01:50:25;7.30;;;4.80;;
11228;SDS011;5671;47.936;8.716;2024-02-14T01:52:54;7.87;;;4.63;;
11228;SDS011;5671;47.936;8.716;2024-02-14T01:55:25;8.20;;;5.57;;
11228;SDS011;5671;47.936;8.716;2024-02-14T01:57:53;8.10;;;5.73;;
11228;SDS011;5671;47.936;8.716;2024-02-14T02:00:20;10.00;;;6.50;;
11228;SDS011;5671;47.936;8.716;2024-02-14T02:02:47;8.60;;;6.27;;
11228;SDS011;5671;47.936;8.716;2024-02-14T02:05:14;8.87;;;5.63;;
11228;SDS011;5671;47.936;8.716;2024-02-14T02:07:42;7.07;;;4.30;;
11228;SDS011;5671;47.936;8.716;2024-02-14T02:10:10;6.60;;;4.60;;
11228;SDS011;5671;47.936;8.716;2024-02-14T02:12:39;7.37;;;4.50;;
11228;SDS011;5671;47.936;8.716;2024-02-14T02:15:06;7.13;;;4.40;;
11228;SDS011;5671;47.936;8.716;2024-02-14T02:17:36;6.27;;;3.93;;
11228;SDS011;5671;47.936;8.716;2024-02-14T02:20:03;7.87;;;3.63;;
11228;SDS011;5671;47.936;8.716;2024-02-14T02:22:32;6.03;;;3.57;;
11228;SDS011;5671;47.936;8.716;2024-02-14T02:25:01;4.97;;;2.60;;
11228;SDS011;5671;47.936;8.716;2024-02-14T02:27:31;3.57;;;2.90;;
11228;SDS011;5671;47.936;8.716;2024-02-14T02:30:00;5.20;;;2.80;;
11228;SDS011;5671;47.936;8.716;2024-02-14T02:32:29;3.67;;;2.40;;
11228;SDS011;5671;47.936;8.716;2024-02-14T02:34:56;4.83;;;2.90;;
11228;SDS011;5671;47.936;8.716;2024-02-14T02:37:23;4.50;;;2.53;;
11228;SDS011;5671;47.936;8.716;2024-02-14T02:39:50;3.50;;;2.40;;
11228;SDS011;5671;47.936;8.716;2024-02-14T02:42:18;7.93;;;2.60;;
11228;SDS011;5671;47.936;8.716;2024-02-14T02:44:46;2.47;;;2.10;;
11228;SDS011;5671;47.936;8.716;2024-02-14T02:47:13;4.77;;;2.60;;
11228;SDS011;5671;47.936;8.716;2024-02-14T02:49:41;3.67;;;2.17;;
11228;SDS011;5671;47.936;8.716;2024-02-14T02:52:09;2.53;;;2.20;;
11228;SDS011;5671;47.936;8.716;2024-02-14T02:54:36;3.27;;;2.13;;
11228;SDS011;5671;47.936;8.716;2024-02-14T02:57:04;3.50;;;1.97;;
11228;SDS011;5671;47.936;8.716;2024-02-14T02:59:32;5.53;;;2.33;;
11228;SDS011;5671;47.936;8.716;2024-02-14T03:02:00;3.30;;;1.70;;
11228;SDS011;5671;47.936;8.716;2024-02-14T03:04:27;2.30;;;1.83;;
11228;SDS011;5671;47.936;8.716;2024-02-14T03:06:54;3.30;;;1.73;;
11228;SDS011;5671;47.936;8.716;2024-02-14T03:09:21;6.43;;;2.30;;
11228;SDS011;5671;47.936;8.716;2024-02-14T03:11:48;4.43;;;2.23;;
11228;SDS011;5671;47.936;8.716;2024-02-14T03:14:15;3.27;;;1.80;;
11228;SDS011;5671;47.936;8.716;2024-02-14T03:16:43;4.53;;;2.10;;
11228;SDS011;5671;47.936;8.716;2024-02-14T03:19:10;5.50;;;2.10;;
11228;SDS011;5671;47.936;8.716;2024-02-14T03:21:37;3.13;;;1.73;;
11228;SDS011;5671;47.936;8.716;2024-02-14T03:24:04;3.43;;;1.90;;
11228;SDS011;5671;47.936;8.716;2024-02-14T03:26:35;2.90;;;2.10;;
11228;SDS011;5671;47.936;8.716;2024-02-14T03:29:03;2.23;;;1.97;;
11228;SDS011;5671;47.936;8.716;2024-02-14T03:31:31;3.07;;;2.00;;
11228;SDS011;5671;47.936;8.716;2024-02-14T03:34:00;5.43;;;2.10;;
11228;SDS011;5671;47.936;8.716;2024-02-14T03:36:27;3.07;;;2.03;;
11228;SDS011;5671;47.936;8.716;2024-02-14T03:38:55;3.13;;;2.00;;
11228;SDS011;5671;47.936;8.716;2024-02-14T03:41:22;4.30;;;2.23;;
11228;SDS011;5671;47.936;8.716;2024-02-14T03:43:49;2.20;;;1.90;;
11228;SDS011;5671;47.936;8.716;2024-02-14T03:46:18;2.67;;;2.00;;
11228;SDS011;5671;47.936;8.716;2024-02-14T03:48:46;3.67;;;2.23;;
11228;SDS011;5671;47.936;8.716;2024-02-14T03:51:15;3.00;;;2.10;;
11228;SDS011;5671;47.936;8.716;2024-02-14T03:53:42;3.30;;;2.20;;
11228;SDS011;5671;47.936;8.716;2024-02-14T03:56:09;3.40;;;2.30;;
11228;SDS011;5671;47.936;8.716;2024-02-14T03:58:37;3.23;;;2.23;;
11228;SDS011;5671;47.936;8.716;2024-02-14T04:01:04;3.50;;;2.43;;
11228;SDS011;5671;47.936;8.716;2024-02-14T04:03:31;5.00;;;2.50;;
11228;SDS011;5671;47.936;8.716;2024-02-14T04:05:58;3.30;;;2.33;;
11228;SDS011;5671;47.936;8.716;2024-02-14T04:08:27;3.73;;;2.07;;
11228;SDS011;5671;47.936;8.716;2024-02-14T04:10:54;2.57;;;1.93;;
11228;SDS011;5671;47.936;8.716;2024-02-14T04:13:21;3.70;;;2.40;;
11228;SDS011;5671;47.936;8.716;2024-02-14T04:15:48;4.00;;;2.17;;
11228;SDS011;5671;47.936;8.716;2024-02-14T04:18:15;2.90;;;2.27;;
11228;SDS011;5671;47.936;8.716;2024-02-14T04:20:43;3.40;;;2.40;;
11228;SDS011;5671;47.936;8.716;2024-02-14T04:23:10;3.17;;;2.00;;
11228;SDS011;5671;47.936;8.716;2024-02-14T04:25:38;2.60;;;1.90;;
11228;SDS011;5671;47.936;8.716;2024-02-14T04:28:05;3.70;;;2.00;;
11228;SDS011;5671;47.936;8.716;2024-02-14T04:30:32;4.40;;;2.23;;
11228;SDS011;5671;47.936;8.716;2024-02-14T04:33:01;2.93;;;2.00;;
11228;SDS011;5671;47.936;8.716;2024-02-14T04:35:29;2.17;;;1.93;;
11228;SDS011;5671;47.936;8.716;2024-02-14T04:37:56;3.70;;;2.00;;
11228;SDS011;5671;47.936;8.716;2024-02-14T04:40:23;4.43;;;2.50;;
11228;SDS011;5671;47.936;8.716;2024-02-14T04:42:51;3.83;;;2.30;;
11228;SDS011;5671;47.936;8.716;2024-02-14T04:45:18;5.57;;;2.03;;
11228;SDS011;5671;47.936;8.716;2024-02-14T04:47:44;2.90;;;2.30;;
11228;SDS011;5671;47.936;8.716;2024-02-14T04:50:11;2.77;;;2.43;;
11228;SDS011;5671;47.936;8.716;2024-02-14T04:52:39;4.60;;;2.20;;
11228;SDS011;5671;47.936;8.716;2024-02-14T04:55:06;3.57;;;2.20;;
11228;SDS011;5671;47.936;8.716;2024-02-14T04:57:34;4.00;;;2.30;;
11228;SDS011;5671;47.936;8.716;2024-02-14T05:00:06;4.40;;;1.87;;
11228;SDS011;5671;47.936;8.716;2024-02-14T05:02:34;3.37;;;2.13;;
11228;SDS011;5671;47.936;8.716;2024-02-14T05:05:02;3.00;;;2.13;;
11228;SDS011;5671;47.936;8.716;2024-02-14T05:07:29;4.90;;;2.20;;
11228;SDS011;5671;47.936;8.716;2024-02-14T05:09:56;3.13;;;2.10;;
11228;SDS011;5671;47.936;8.716;2024-02-14T05:12:23;2.97;;;1.90;;
11228;SDS011;5671;47.936;8.716;2024-02-14T05:14:50;3.40;;;2.10;;
11228;SDS011;5671;47.936;8.716;2024-02-14T05:17:18;2.83;;;2.30;;
11228;SDS011;5671;47.936;8.716;2024-02-14T05:19:45;3.97;;;2.00;;
11228;SDS011;5671;47.936;8.716;2024-02-14T05:22:12;5.00;;;2.40;;
11228;SDS011;5671;47.936;8.716;2024-02-14T05:24:38;6.57;;;2.50;;
11228;SDS011;5671;47.936;8.716;2024-02-14T05:27:05;4.60;;;2.70;;
11228;SDS011;5671;47.936;8.716;2024-02-14T05:29:32;6.40;;;2.70;;
11228;SDS011;5671;47.936;8.716;2024-02-14T05:31:59;2.87;;;1.90;;
11228;SDS011;5671;47.936;8.716;2024-02-14T05:34:30;3.43;;;2.03;;
11228;SDS011;5671;47.936;8.716;2024-02-14T05:36:57;3.63;;;2.10;;
11228;SDS011;5671;47.936;8.716;2024-02-14T05:39:24;4.03;;;2.20;;
11228;SDS011;5671;47.936;8.716;2024-02-14T05:41:51;3.07;;;2.00;;
11228;SDS011;5671;47.936;8.716;2024-02-14T05:44:19;3.87;;;2.17;;
11228;SDS011;5671;47.936;8.716;2024-02-14T05:46:47;5.00;;;2.47;;
11228;SDS011;5671;47.936;8.716;2024-02-14T05:49:14;2.40;;;1.90;;
11228;SDS011;5671;47.936;8.716;2024-02-14T05:51:42;5.10;;;1.90;;
11228;SDS011;5671;47.936;8.716;2024-02-14T05:54:09;3.20;;;2.27;;
11228;SDS011;5671;47.936;8.716;2024-02-14T05:56:36;2.50;;;1.90;;
11228;SDS011;5671;47.936;8.716;2024-02-14T05:59:03;4.40;;;1.97;;
11228;SDS011;5671;47.936;8.716;2024-02-14T06:01:29;4.57;;;1.73;;
11228;SDS011;5671;47.936;8.716;2024-02-14T06:03:56;3.60;;;1.73;;
11228;SDS011;5671;47.936;8.716;2024-02-14T06:06:23;4.40;;;2.00;;
11228;SDS011;5671;47.936;8.716;2024-02-14T06:08:51;5.43;;;3.30;;
11228;SDS011;5671;47.936;8.716;2024-02-14T06:11:18;6.53;;;3.07;;
11228;SDS011;5671;47.936;8.716;2024-02-14T06:13:46;5.43;;;2.70;;
11228;SDS011;5671;47.936;8.716;2024-02-14T06:16:13;4.27;;;2.87;;
11228;SDS011;5671;47.936;8.716;2024-02-14T06:18:40;6.33;;;2.90;;
11228;SDS011;5671;47.936;8.716;2024-02-14T06:21:07;5.37;;;2.60;;
11228;SDS011;5671;47.936;8.716;2024-02-14T06:23:34;4.30;;;2.30;;
11228;SDS011;5671;47.936;8.716;2024-02-14T06:26:03;5.50;;;2.70;;
11228;SDS011;5671;47.936;8.716;2024-02-14T06:28:30;5.27;;;2.70;;
11228;SDS011;5671;47.936;8.716;2024-02-14T06:30:57;3.20;;;2.50;;
11228;SDS011;5671;47.936;8.716;2024-02-14T06:33:25;3.20;;;2.60;;
11228;SDS011;5671;47.936;8.716;2024-02-14T06:35:52;3.80;;;2.40;;
11228;SDS011;5671;47.936;8.716;2024-02-14T06:38:19;6.43;;;3.27;;
11228;SDS011;5671;47.936;8.716;2024-02-14T06:40:45;9.60;;;3.20;;
11228;SDS011;5671;47.936;8.716;2024-02-14T06:43:14;5.40;;;3.40;;
11228;SDS011;5671;47.936;8.716;2024-02-14T06:45:40;6.20;;;2.37;;
11228;SDS011;5671;47.936;8.716;2024-02-14T06:48:08;4.60;;;3.10;;
11228;SDS011;5671;47.936;8.716;2024-02-14T06:50:35;6.50;;;3.70;;
11228;SDS011;5671;47.936;8.716;2024-02-14T06:53:02;10.37;;;4.07;;
11228;SDS011;5671;47.936;8.716;2024-02-14T06:55:29;6.20;;;3.67;;
11228;SDS011;5671;47.936;8.716;2024-02-14T06:57:57;5.63;;;3.00;;
11228;SDS011;5671;47.936;8.716;2024-02-14T07:00:25;4.13;;;3.63;;
11228;SDS011;5671;47.936;8.716;2024-02-14T07:02:53;6.27;;;4.00;;
11228;SDS011;5671;47.936;8.716;2024-02-14T07:05:19;5.23;;;3.93;;
11228;SDS011;5671;47.936;8.716;2024-02-14T07:07:46;5.17;;;3.80;;
11228;SDS011;5671;47.936;8.716;2024-02-14T07:10:13;7.97;;;3.60;;
11228;SDS011;5671;47.936;8.716;2024-02-14T07:12:40;6.57;;;3.80;;
11228;SDS011;5671;47.936;8.716;2024-02-14T07:15:07;6.77;;;3.63;;
11228;SDS011;5671;47.936;8.716;2024-02-14T07:17:35;5.43;;;4.03;;
11228;SDS011;5671;47.936;8.716;2024-02-14T07:20:03;6.53;;;3.37;;
11228;SDS011;5671;47.936;8.716;2024-02-14T07:22:33;5.87;;;3.60;;
11228;SDS011;5671;47.936;8.716;2024-02-14T07:25:00;4.53;;;3.03;;
11228;SDS011;5671;47.936;8.716;2024-02-14T07:27:27;5.40;;;3.63;;
11228;SDS011;5671;47.936;8.716;2024-02-14T07:29:54;5.80;;;3.97;;
11228;SDS011;5671;47.936;8.716;2024-02-14T07:32:21;6.70;;;3.57;;
11228;SDS011;5671;47.936;8.716;2024-02-14T07:34:49;5.67;;;3.70;;
11228;SDS011;5671;47.936;8.716;2024-02-14T07:37:16;7.90;;;3.37;;
11228;SDS011;5671;47.936;8.716;2024-02-14T07:39:44;7.13;;;4.20;;
11228;SDS011;5671;47.936;8.716;2024-02-14T07:42:11;4.63;;;3.73;;
11228;SDS011;5671;47.936;8.716;2024-02-14T07:44:38;6.10;;;2.30;;
11228;SDS011;5671;47.936;8.716;2024-02-14T07:47:05;4.83;;;2.80;;
11228;SDS011;5671;47.936;8.716;2024-02-14T07:49:32;4.93;;;3.03;;
11228;SDS011;5671;47.936;8.716;2024-02-14T07:52:00;5.20;;;3.63;;
11228;SDS011;5671;47.936;8.716;2024-02-14T07:54:27;5.93;;;3.03;;
11228;SDS011;5671;47.936;8.716;2024-02-14T07:56:54;4.60;;;3.27;;
11228;SDS011;5671;47.936;8.716;2024-02-14T07:59:21;6.77;;;3.27;;
11228;SDS011;5671;47.936;8.716;2024-02-14T08:01:47;7.03;;;2.97;;
11228;SDS011;5671;47.936;8.716;2024-02-14T08:04:14;3.83;;;2.87;;
11228;SDS011;5671;47.936;8.716;2024-02-14T08:06:41;6.50;;;2.80;;
11228;SDS011;5671;47.936;8.716;2024-02-14T08:09:09;4.67;;;2.63;;
11228;SDS011;5671;47.936;8.716;2024-02-14T08:11:36;4.67;;;2.10;;
11228;SDS011;5671;47.936;8.716;2024-02-14T08:14:03;3.83;;;2.20;;
11228;SDS011;5671;47.936;8.716;2024-02-14T08:16:30;2.93;;;2.47;;
11228;SDS011;5671;47.936;8.716;2024-02-14T08:18:57;3.03;;;2.30;;
11228;SDS011;5671;47.936;8.716;2024-02-14T08:21:24;5.87;;;2.10;;
11228;SDS011;5671;47.936;8.716;2024-02-14T08:23:51;3.23;;;2.10;;
11228;SDS011;5671;47.936;8.716;2024-02-14T08:26:21;3.13;;;1.80;;
11228;SDS011;5671;47.936;8.716;2024-02-14T08:28:48;4.67;;;1.93;;
11228;SDS011;5671;47.936;8.716;2024-02-14T08:31:15;2.97;;;1.83;;
11228;SDS011;5671;47.936;8.716;2024-02-14T08:33:42;4.67;;;1.93;;
11228;SDS011;5671;47.936;8.716;2024-02-14T08:36:09;4.33;;;2.20;;
11228;SDS011;5671;47.936;8.716;2024-02-14T08:38:36;2.97;;;2.00;;
11228;SDS011;5671;47.936;8.716;2024-02-14T08:41:03;4.80;;;2.00;;
11228;SDS011;5671;47.936;8.716;2024-02-14T08:43:32;3.80;;;1.90;;
11228;SDS011;5671;47.936;8.716;2024-02-14T08:45:59;5.90;;;2.40;;
11228;SDS011;5671;47.936;8.716;2024-02-14T08:48:27;3.63;;;2.10;;
11228;SDS011;5671;47.936;8.716;2024-02-14T08:50:58;5.17;;;2.20;;
11228;SDS011;5671;47.936;8.716;2024-02-14T08:53:25;5.77;;;2.13;;
11228;SDS011;5671;47.936;8.716;2024-02-14T08:55:52;2.70;;;2.07;;
11228;SDS011;5671;47.936;8.716;2024-02-14T08:58:19;5.27;;;2.50;;
11228;SDS011;5671;47.936;8.716;2024-02-14T09:00:48;2.20;;;1.43;;
11228;SDS011;5671;47.936;8.716;2024-02-14T09:03:16;1.87;;;1.70;;
11228;SDS011;5671;47.936;8.716;2024-02-14T09:05:44;3.67;;;1.63;;
11228;SDS011;5671;47.936;8.716;2024-02-14T09:08:11;3.40;;;2.00;;
11228;SDS011;5671;47.936;8.716;2024-02-14T09:10:38;3.17;;;2.07;;
11228;SDS011;5671;47.936;8.716;2024-02-14T09:13:05;7.87;;;2.00;;
11228;SDS011;5671;47.936;8.716;2024-02-14T09:15:33;2.63;;;1.80;;
11228;SDS011;5671;47.936;8.716;2024-02-14T09:18:01;2.57;;;1.83;;
11228;SDS011;5671;47.936;8.716;2024-02-14T09:20:28;4.03;;;1.83;;
11228;SDS011;5671;47.936;8.716;2024-02-14T09:22:55;2.03;;;1.80;;
11228;SDS011;5671;47.936;8.716;2024-02-14T09:25:23;2.87;;;2.10;;
11228;SDS011;5671;47.936;8.716;2024-02-14T09:27:50;1.80;;;1.70;;
11228;SDS011;5671;47.936;8.716;2024-02-14T09:30:18;4.80;;;1.80;;
11228;SDS011;5671;47.936;8.716;2024-02-14T09:32:45;3.83;;;1.93;;
11228;SDS011;5671;47.936;8.716;2024-02-14T09:35:14;3.00;;;1.60;;
11228;SDS011;5671;47.936;8.716;2024-02-14T09:37:40;3.50;;;1.93;;
11228;SDS011;5671;47.936;8.716;2024-02-14T09:40:08;4.33;;;2.10;;
11228;SDS011;5671;47.936;8.716;2024-02-14T09:42:38;2.80;;;1.93;;
11228;SDS011;5671;47.936;8.716;2024-02-14T09:45:09;2.23;;;1.90;;
11228;SDS011;5671;47.936;8.716;2024-02-14T09:47:37;2.67;;;1.73;;
11228;SDS011;5671;47.936;8.716;2024-02-14T09:50:05;2.77;;;1.90;;
11228;SDS011;5671;47.936;8.716;2024-02-14T09:52:36;4.27;;;1.90;;
11228;SDS011;5671;47.936;8.716;2024-02-14T09:55:04;3.97;;;2.10;;
11228;SDS011;5671;47.936;8.716;2024-02-14T09:57:32;4.10;;;2.10;;
11228;SDS011;5671;47.936;8.716;2024-02-14T10:00:00;6.83;;;2.03;;
11228;SDS011;5671;47.936;8.716;2024-02-14T10:02:29;2.47;;;1.83;;
11228;SDS011;5671;47.936;8.716;2024-02-14T10:04:56;3.27;;;2.07;;
11228;SDS011;5671;47.936;8.716;2024-02-14T10:07:23;3.03;;;2.00;;
11228;SDS011;5671;47.936;8.716;2024-02-14T10:09:51;2.83;;;1.80;;
11228;SDS011;5671;47.936;8.716;2024-02-14T10:12:18;5.43;;;2.07;;
11228;SDS011;5671;47.936;8.716;2024-02-14T10:14:45;2.43;;;1.70;;
11228;SDS011;5671;47.936;8.716;2024-02-14T10:17:17;3.03;;;1.77;;
11228;SDS011;5671;47.936;8.716;2024-02-14T10:19:54;4.07;;;2.03;;
11228;SDS011;5671;47.936;8.716;2024-02-14T10:22:21;4.60;;;1.90;;
11228;SDS011;5671;47.936;8.716;2024-02-14T10:24:48;3.13;;;2.00;;
11228;SDS011;5671;47.936;8.716;2024-02-14T10:27:17;3.17;;;1.73;;
11228;SDS011;5671;47.936;8.716;2024-02-14T10:29:43;2.70;;;2.43;;
11228;SDS011;5671;47.936;8.716;2024-02-14T10:32:14;3.07;;;1.77;;
11228;SDS011;5671;47.936;8.716;2024-02-14T10:34:41;3.40;;;1.73;;
11228;SDS011;5671;47.936;8.716;2024-02-14T10:37:11;3.10;;;1.60;;
11228;SDS011;5671;47.936;8.716;2024-02-14T10:39:44;3.83;;;1.60;;
11228;SDS011;5671;47.936;8.716;2024-02-14T10:42:18;2.00;;;1.80;;
11228;SDS011;5671;47.936;8.716;2024-02-14T10:44:45;4.63;;;1.97;;
11228;SDS011;5671;47.936;8.716;2024-02-14T10:47:18;1.83;;;1.50;;
11228;SDS011;5671;47.936;8.716;2024-02-14T10:49:47;4.17;;;1.90;;
11228;SDS011;5671;47.936;8.716;2024-02-14T10:52:16;3.83;;;1.50;;
11228;SDS011;5671;47.936;8.716;2024-02-14T10:54:47;3.33;;;1.80;;
11228;SDS011;5671;47.936;8.716;2024-02-14T10:57:20;3.13;;;1.47;;
11228;SDS011;5671;47.936;8.716;2024-02-14T10:59:49;3.10;;;1.83;;
11228;SDS011;5671;47.936;8.716;2024-02-14T11:02:17;1.60;;;1.30;;
11228;SDS011;5671;47.936;8.716;2024-02-14T11:04:45;2.53;;;1.40;;
11228;SDS011;5671;47.936;8.716;2024-02-14T11:07:12;1.87;;;1.70;;
11228;SDS011;5671;47.936;8.716;2024-02-14T11:09:40;3.73;;;3.00;;
11228;SDS011;5671;47.936;8.716;2024-02-14T11:12:07;5.00;;;4.03;;
11228;SDS011;5671;47.936;8.716;2024-02-14T11:14:41;4.50;;;2.90;;
11228;SDS011;5671;47.936;8.716;2024-02-14T11:17:12;2.73;;;1.90;;
11228;SDS011;5671;47.936;8.716;2024-02-14T11:19:39;2.60;;;1.27;;
11228;SDS011;5671;47.936;8.716;2024-02-14T11:22:12;2.63;;;1.20;;
11228;SDS011;5671;47.936;8.716;2024-02-14T11:24:45;2.20;;;1.30;;
11228;SDS011;5671;47.936;8.716;2024-02-14T11:27:12;2.60;;;1.20;;
11228;SDS011;5671;47.936;8.716;2024-02-14T11:29:52;0.80;;;0.63;;
11228;SDS011;5671;47.936;8.716;2024-02-14T11:32:19;1.50;;;1.30;;
11228;SDS011;5671;47.936;8.716;2024-02-14T11:34:52;2.50;;;1.47;;
11228;SDS011;5671;47.936;8.716;2024-02-14T11:37:20;1.43;;;1.30;;
11228;SDS011;5671;47.936;8.716;2024-02-14T11:39:53;1.97;;;1.77;;
11228;SDS011;5671;47.936;8.716;2024-02-14T11:42:23;1.83;;;1.03;;
11228;SDS011;5671;47.936;8.716;2024-02-14T11:44:51;3.20;;;1.40;;
11228;SDS011;5671;47.936;8.716;2024-02-14T11:47:20;4.10;;;1.47;;
11228;SDS011;5671;47.936;8.716;2024-02-14T11:49:48;1.90;;;1.30;;
11228;SDS011;5671;47.936;8.716;2024-02-14T11:52:15;0.97;;;0.87;;
11228;SDS011;5671;47.936;8.716;2024-02-14T11:54:45;2.17;;;0.60;;
11228;SDS011;5671;47.936;8.716;2024-02-14T11:57:16;0.57;;;0.47;;
11228;SDS011;5671;47.936;8.716;2024-02-14T11:59:43;1.40;;;0.77;;
11228;SDS011;5671;47.936;8.716;2024-02-14T12:02:14;0.60;;;0.47;;
11228;SDS011;5671;47.936;8.716;2024-02-14T12:04:44;0.53;;;0.50;;
11228;SDS011;5671;47.936;8.716;2024-02-14T12:07:11;1.03;;;0.90;;
11228;SDS011;5671;47.936;8.716;2024-02-14T12:09:39;0.50;;;0.50;;
11228;SDS011;5671;47.936;8.716;2024-02-14T12:12:07;0.73;;;0.73;;
11228;SDS011;5671;47.936;8.716;2024-02-14T12:14:34;0.70;;;0.70;;
11228;SDS011;5671;47.936;8.716;2024-02-14T12:17:01;0.67;;;0.60;;
11228;SDS011;5671;47.936;8.716;2024-02-14T12:19:32;0.90;;;0.67;;
11228;SDS011;5671;47.936;8.716;2024-02-14T12:22:00;1.60;;;0.90;;
11228;SDS011;5671;47.936;8.716;2024-02-14T12:24:27;1.03;;;0.33;;
11228;SDS011;5671;47.936;8.716;2024-02-14T12:26:55;0.83;;;0.60;;
11228;SDS011;5671;47.936;8.716;2024-02-14T12:29:23;1.00;;;1.00;;
11228;SDS011;5671;47.936;8.716;2024-02-14T12:31:50;0.73;;;0.73;;
11228;SDS011;5671;47.936;8.716;2024-02-14T12:34:17;0.83;;;0.40;;
11228;SDS011;5671;47.936;8.716;2024-02-14T12:36:46;0.70;;;0.67;;
11228;SDS011;5671;47.936;8.716;2024-02-14T12:39:13;0.73;;;0.57;;
11228;SDS011;5671;47.936;8.716;2024-02-14T12:41:40;0.60;;;0.27;;
11228;SDS011;5671;47.936;8.716;2024-02-14T12:44:07;0.97;;;0.67;;
11228;SDS011;5671;47.936;8.716;2024-02-14T12:46:34;1.53;;;1.30;;
11228;SDS011;5671;47.936;8.716;2024-02-14T12:49:06;0.97;;;0.90;;
11228;SDS011;5671;47.936;8.716;2024-02-14T12:51:34;1.00;;;0.90;;
11228;SDS011;5671;47.936;8.716;2024-02-14T12:54:02;0.83;;;0.83;;
11228;SDS011;5671;47.936;8.716;2024-02-14T12:56:30;1.00;;;0.70;;
11228;SDS011;5671;47.936;8.716;2024-02-14T12:58:57;0.80;;;0.70;;
11228;SDS011;5671;47.936;8.716;2024-02-14T13:01:24;0.77;;;0.77;;
11228;SDS011;5671;47.936;8.716;2024-02-14T13:03:51;0.60;;;0.60;;
11228;SDS011;5671;47.936;8.716;2024-02-14T13:06:18;1.17;;;0.90;;
11228;SDS011;5671;47.936;8.716;2024-02-14T13:08:46;1.60;;;0.90;;
11228;SDS011;5671;47.936;8.716;2024-02-14T13:11:17;0.60;;;0.60;;
11228;SDS011;5671;47.936;8.716;2024-02-14T13:13:44;0.50;;;0.40;;
11228;SDS011;5671;47.936;8.716;2024-02-14T13:16:11;0.57;;;0.37;;
11228;SDS011;5671;47.936;8.716;2024-02-14T13:18:38;0.70;;;0.47;;
11228;SDS011;5671;47.936;8.716;2024-02-14T13:21:05;1.70;;;0.60;;
11228;SDS011;5671;47.936;8.716;2024-02-14T13:23:32;0.47;;;0.47;;
11228;SDS011;5671;47.936;8.716;2024-02-14T13:26:01;0.40;;;0.40;;
11228;SDS011;5671;47.936;8.716;2024-02-14T13:28:30;0.30;;;0.30;;
11228;SDS011;5671;47.936;8.716;2024-02-14T13:30:57;0.17;;;0.17;;
11228;SDS011;5671;47.936;8.716;2024-02-14T13:33:24;0.50;;;0.50;;
11228;SDS011;5671;47.936;8.716;2024-02-14T13:35:50;0.40;;;0.40;;
11228;SDS011;5671;47.936;8.716;2024-02-14T13:38:17;0.23;;;0.23;;
11228;SDS011;5671;47.936;8.716;2024-02-14T13:40:44;0.47;;;0.27;;
11228;SDS011;5671;47.936;8.716;2024-02-14T13:43:11;0.57;;;0.30;;
11228;SDS011;5671;47.936;8.716;2024-02-14T13:45:43;0.13;;;0.13;;
11228;SDS011;5671;47.936;8.716;2024-02-14T13:48:11;2.00;;;0.30;;
11228;SDS011;5671;47.936;8.716;2024-02-14T13:50:38;0.30;;;0.30;;
11228;SDS011;5671;47.936;8.716;2024-02-14T13:53:10;0.20;;;0.20;;
11228;SDS011;5671;47.936;8.716;2024-02-14T13:55:37;1.30;;;0.67;;
11228;SDS011;5671;47.936;8.716;2024-02-14T13:58:04;0.20;;;0.20;;
11228;SDS011;5671;47.936;8.716;2024-02-14T14:00:31;0.33;;;0.20;;
11228;SDS011;5671;47.936;8.716;2024-02-14T14:02:59;1.07;;;0.43;;
11228;SDS011;5671;47.936;8.716;2024-02-14T14:05:26;0.50;;;0.20;;
11228;SDS011;5671;47.936;8.716;2024-02-14T14:07:53;0.20;;;0.20;;
11228;SDS011;5671;47.936;8.716;2024-02-14T14:10:22;0.40;;;0.30;;
11228;SDS011;5671;47.936;8.716;2024-02-14T14:12:50;2.23;;;0.27;;
11228;SDS011;5671;47.936;8.716;2024-02-14T14:15:17;0.30;;;0.30;;
11228;SDS011;5671;47.936;8.716;2024-02-14T14:17:44;0.70;;;0.20;;
11228;SDS011;5671;47.936;8.716;2024-02-14T14:20:12;3.13;;;0.70;;
11228;SDS011;5671;47.936;8.716;2024-02-14T14:22:39;0.53;;;0.30;;
11228;SDS011;5671;47.936;8.716;2024-02-14T14:25:06;2.20;;;0.30;;
11228;SDS011;5671;47.936;8.716;2024-02-14T14:27:34;3.30;;;0.40;;
11228;SDS011;5671;47.936;8.716;2024-02-14T14:30:00;0.57;;;0.50;;
11228;SDS011;5671;47.936;8.716;2024-02-14T14:32:28;0.20;;;0.20;;
11228;SDS011;5671;47.936;8.716;2024-02-14T14:34:55;0.63;;;0.37;;
11228;SDS011;5671;47.936;8.716;2024-02-14T14:37:23;0.40;;;0.20;;
11228;SDS011;5671;47.936;8.716;2024-02-14T14:39:49;0.93;;;0.40;;
11228;SDS011;5671;47.936;8.716;2024-02-14T14:42:17;7.33;;;0.50;;
11228;SDS011;5671;47.936;8.716;2024-02-14T14:44:44;1.13;;;0.50;;
11228;SDS011;5671;47.936;8.716;2024-02-14T14:47:11;0.40;;;0.40;;
11228;SDS011;5671;47.936;8.716;2024-02-14T14:49:38;0.40;;;0.40;;
11228;SDS011;5671;47.936;8.716;2024-02-14T14:52:05;0.40;;;0.40;;
11228;SDS011;5671;47.936;8.716;2024-02-14T14:54:33;0.50;;;0.50;;
11228;SDS011;5671;47.936;8.716;2024-02-14T14:57:00;0.40;;;0.40;;
11228;SDS011;5671;47.936;8.716;2024-02-14T14:59:29;1.10;;;0.43;;
11228;SDS011;5671;47.936;8.716;2024-02-14T15:01:56;1.10;;;0.50;;
11228;SDS011;5671;47.936;8.716;2024-02-14T15:04:22;0.30;;;0.30;;